Página principal
METAR-TAF:

METAR-TAF

Aeroportos :

Bucara, Uzbequistão

latitude: 39-46-30N, longitude: 064-29-00E, altura: 229 m

Observação actual do tempo

O boletim foi feito há 30 minutos, às 16:30 UTC
Vento 8 kt de norte
Temperatura 31°C
Humidade 36%
Pressão 1000 hPa
Visibilidade 10 km ou mais
sem nuvens abaixo de 1500 metros e sem cumulonimbus

METAR: UTSB 231630Z 36008KT CAVOK 31/14 Q1000 R01/CLRD70 NOSIG

Hora: 22:00 (17:00 UTC)

Previsão

O boletim foi feito há 6 horas e 0 minutos, às 11:00 UTC
Previsão válida de 23 às 12 UTC a 24 às 12 UTC
Vento 8 kt de norte
Visibilidade: 7000 m
Temporariamente
de 23 às 12 UTC a 23 às 16 UTC
Vento 16 kt de nor-noroeste com rajadas de 26 kt
Visibilidade: 2500 m
Poucas nuvensa uma altura de 1000 ft
Temporariamente
de 23 às 16 UTC a 23 às 23 UTC
Vento 3 kt com direcção variável

TAF: UTSB 231100Z 2312/2412 36008KT 7000 NSC TX39/2411Z TEMPO 2312/2316 33016G26KT 2500 -DS FEW010 TEMPO 2316/2323 VRB03KT

Observações e previsões do tempo de mais de 4000 aeroportos (mensagens METAR e TAF).

As estações disponíveis são os pontos amarelos e vermelhos sobre o mapa.

Mova o rato sobre o mapa para ver o nome da estação.

Depois clique no ponto para visualizar as observações e previsões meteorológicas.

Para alterar o mapa : clique nos botões verdes com uma cruz preta para aumentar o zoom; no botão verde com uma pitada de zoom; ou nas setas verdes para mapas adjacentes.


METAR-TAF: